sensor_id;sensor_type;location;lat;lon;timestamp;P1;durP1;ratioP1;P2;durP2;ratioP2
48199;SDS011;33990;44.602;10.976;2022-09-20T00:01:10;4.97;;;2.00;;
48199;SDS011;33990;44.602;10.976;2022-09-20T00:03:48;3.72;;;2.00;;
48199;SDS011;33990;44.602;10.976;2022-09-20T00:06:20;2.20;;;1.70;;
48199;SDS011;33990;44.602;10.976;2022-09-20T00:08:50;6.70;;;2.03;;
48199;SDS011;33990;44.602;10.976;2022-09-20T00:11:21;4.07;;;1.92;;
48199;SDS011;33990;44.602;10.976;2022-09-20T00:13:50;5.90;;;2.30;;
48199;SDS011;33990;44.602;10.976;2022-09-20T00:16:20;3.28;;;2.10;;
48199;SDS011;33990;44.602;10.976;2022-09-20T00:18:50;2.55;;;1.88;;
48199;SDS011;33990;44.602;10.976;2022-09-20T00:21:19;3.10;;;1.80;;
48199;SDS011;33990;44.602;10.976;2022-09-20T00:23:50;7.28;;;2.08;;
48199;SDS011;33990;44.602;10.976;2022-09-20T00:26:18;3.70;;;1.63;;
48199;SDS011;33990;44.602;10.976;2022-09-20T00:28:46;3.05;;;2.08;;
48199;SDS011;33990;44.602;10.976;2022-09-20T00:31:13;4.20;;;2.13;;
48199;SDS011;33990;44.602;10.976;2022-09-20T00:33:42;4.80;;;2.03;;
48199;SDS011;33990;44.602;10.976;2022-09-20T00:36:28;2.80;;;2.10;;
48199;SDS011;33990;44.602;10.976;2022-09-20T00:38:56;3.88;;;2.10;;
48199;SDS011;33990;44.602;10.976;2022-09-20T00:41:25;3.00;;;2.00;;
48199;SDS011;33990;44.602;10.976;2022-09-20T00:43:54;3.00;;;2.15;;
48199;SDS011;33990;44.602;10.976;2022-09-20T00:46:28;2.88;;;2.08;;
48199;SDS011;33990;44.602;10.976;2022-09-20T00:49:10;2.95;;;2.10;;
48199;SDS011;33990;44.602;10.976;2022-09-20T00:51:47;2.55;;;2.22;;
48199;SDS011;33990;44.602;10.976;2022-09-20T00:54:18;2.80;;;2.00;;
48199;SDS011;33990;44.602;10.976;2022-09-20T00:56:47;5.05;;;2.13;;
48199;SDS011;33990;44.602;10.976;2022-09-20T00:59:20;3.63;;;2.20;;
48199;SDS011;33990;44.602;10.976;2022-09-20T01:01:55;2.60;;;2.08;;
48199;SDS011;33990;44.602;10.976;2022-09-20T01:04:26;3.10;;;2.15;;
48199;SDS011;33990;44.602;10.976;2022-09-20T01:06:56;3.53;;;2.08;;
48199;SDS011;33990;44.602;10.976;2022-09-20T01:09:28;2.95;;;2.17;;
48199;SDS011;33990;44.602;10.976;2022-09-20T01:11:55;4.97;;;2.28;;
48199;SDS011;33990;44.602;10.976;2022-09-20T01:14:27;3.83;;;2.45;;
48199;SDS011;33990;44.602;10.976;2022-09-20T01:16:56;3.42;;;2.17;;
48199;SDS011;33990;44.602;10.976;2022-09-20T01:28:26;3.15;;;1.92;;
48199;SDS011;33990;44.602;10.976;2022-09-20T01:33:53;3.35;;;2.03;;
48199;SDS011;33990;44.602;10.976;2022-09-20T01:36:28;4.13;;;2.30;;
48199;SDS011;33990;44.602;10.976;2022-09-20T01:39:04;2.53;;;1.80;;
48199;SDS011;33990;44.602;10.976;2022-09-20T01:47:34;6.40;;;3.47;;
48199;SDS011;33990;44.602;10.976;2022-09-20T02:06:38;3.22;;;2.30;;
48199;SDS011;33990;44.602;10.976;2022-09-20T02:12:12;3.10;;;2.10;;
48199;SDS011;33990;44.602;10.976;2022-09-20T02:18:44;3.17;;;2.25;;
48199;SDS011;33990;44.602;10.976;2022-09-20T02:24:22;2.53;;;2.10;;
48199;SDS011;33990;44.602;10.976;2022-09-20T02:43:43;2.67;;;2.00;;
48199;SDS011;33990;44.602;10.976;2022-09-20T02:46:23;4.20;;;2.22;;
48199;SDS011;33990;44.602;10.976;2022-09-20T02:49:07;3.85;;;2.20;;
48199;SDS011;33990;44.602;10.976;2022-09-20T02:51:50;3.40;;;2.30;;
48199;SDS011;33990;44.602;10.976;2022-09-20T02:57:16;4.40;;;2.22;;
48199;SDS011;33990;44.602;10.976;2022-09-20T02:59:52;3.47;;;2.28;;
48199;SDS011;33990;44.602;10.976;2022-09-20T03:05:21;3.63;;;2.30;;
48199;SDS011;33990;44.602;10.976;2022-09-20T03:10:40;3.10;;;2.10;;
48199;SDS011;33990;44.602;10.976;2022-09-20T03:13:18;2.95;;;2.03;;
48199;SDS011;33990;44.602;10.976;2022-09-20T03:18:47;3.25;;;2.28;;
48199;SDS011;33990;44.602;10.976;2022-09-20T03:21:27;4.20;;;2.25;;
48199;SDS011;33990;44.602;10.976;2022-09-20T03:27:30;4.10;;;2.35;;
48199;SDS011;33990;44.602;10.976;2022-09-20T03:38:48;3.85;;;2.33;;
48199;SDS011;33990;44.602;10.976;2022-09-20T03:52:51;2.83;;;1.92;;
48199;SDS011;33990;44.602;10.976;2022-09-20T04:07:04;4.38;;;2.65;;
48199;SDS011;33990;44.602;10.976;2022-09-20T04:12:13;4.10;;;2.35;;
48199;SDS011;33990;44.602;10.976;2022-09-20T04:15:29;3.07;;;2.00;;
48199;SDS011;33990;44.602;10.976;2022-09-20T04:20:45;3.13;;;1.90;;
48199;SDS011;33990;44.602;10.976;2022-09-20T04:23:39;4.38;;;2.03;;
48199;SDS011;33990;44.602;10.976;2022-09-20T04:26:28;4.03;;;2.67;;
48199;SDS011;33990;44.602;10.976;2022-09-20T04:31:42;2.80;;;2.20;;
48199;SDS011;33990;44.602;10.976;2022-09-20T04:34:34;3.20;;;2.00;;
48199;SDS011;33990;44.602;10.976;2022-09-20T04:37:38;3.47;;;2.45;;
48199;SDS011;33990;44.602;10.976;2022-09-20T04:40:18;3.65;;;2.10;;
48199;SDS011;33990;44.602;10.976;2022-09-20T04:54:36;7.30;;;2.55;;
48199;SDS011;33990;44.602;10.976;2022-09-20T05:00:11;3.55;;;2.17;;
48199;SDS011;33990;44.602;10.976;2022-09-20T05:05:34;4.30;;;2.42;;
48199;SDS011;33990;44.602;10.976;2022-09-20T05:16:39;3.17;;;2.33;;
48199;SDS011;33990;44.602;10.976;2022-09-20T05:27:49;3.35;;;2.40;;
48199;SDS011;33990;44.602;10.976;2022-09-20T05:30:33;3.97;;;2.80;;
48199;SDS011;33990;44.602;10.976;2022-09-20T05:41:55;3.72;;;2.60;;
48199;SDS011;33990;44.602;10.976;2022-09-20T05:50:08;4.00;;;2.10;;
48199;SDS011;33990;44.602;10.976;2022-09-20T06:01:15;4.35;;;2.33;;
48199;SDS011;33990;44.602;10.976;2022-09-20T06:03:59;4.07;;;2.30;;
48199;SDS011;33990;44.602;10.976;2022-09-20T06:11:53;4.38;;;2.50;;
48199;SDS011;33990;44.602;10.976;2022-09-20T06:22:41;5.07;;;2.40;;
48199;SDS011;33990;44.602;10.976;2022-09-20T06:25:14;3.47;;;2.10;;
48199;SDS011;33990;44.602;10.976;2022-09-20T06:30:32;3.47;;;2.55;;
48199;SDS011;33990;44.602;10.976;2022-09-20T06:39:14;8.52;;;2.58;;
48199;SDS011;33990;44.602;10.976;2022-09-20T06:42:20;5.13;;;2.92;;
48199;SDS011;33990;44.602;10.976;2022-09-20T06:44:53;5.10;;;2.60;;
48199;SDS011;33990;44.602;10.976;2022-09-20T06:47:20;7.15;;;2.63;;
48199;SDS011;33990;44.602;10.976;2022-09-20T06:49:49;5.55;;;2.45;;
48199;SDS011;33990;44.602;10.976;2022-09-20T06:52:20;7.32;;;3.50;;
48199;SDS011;33990;44.602;10.976;2022-09-20T06:54:49;5.53;;;2.75;;
48199;SDS011;33990;44.602;10.976;2022-09-20T06:57:23;5.05;;;2.40;;
48199;SDS011;33990;44.602;10.976;2022-09-20T06:59:56;19.85;;;3.10;;
48199;SDS011;33990;44.602;10.976;2022-09-20T07:02:23;13.20;;;2.70;;
48199;SDS011;33990;44.602;10.976;2022-09-20T07:04:51;7.72;;;3.00;;
48199;SDS011;33990;44.602;10.976;2022-09-20T07:07:25;8.85;;;2.83;;
48199;SDS011;33990;44.602;10.976;2022-09-20T07:09:52;5.03;;;2.67;;
48199;SDS011;33990;44.602;10.976;2022-09-20T07:12:19;5.32;;;2.53;;
48199;SDS011;33990;44.602;10.976;2022-09-20T07:14:47;6.28;;;2.83;;
48199;SDS011;33990;44.602;10.976;2022-09-20T07:17:16;5.30;;;2.72;;
48199;SDS011;33990;44.602;10.976;2022-09-20T07:19:43;6.43;;;2.70;;
48199;SDS011;33990;44.602;10.976;2022-09-20T07:22:10;5.28;;;2.65;;
48199;SDS011;33990;44.602;10.976;2022-09-20T07:24:38;8.48;;;2.75;;
48199;SDS011;33990;44.602;10.976;2022-09-20T07:27:07;4.93;;;2.20;;
48199;SDS011;33990;44.602;10.976;2022-09-20T07:29:37;9.77;;;2.90;;
48199;SDS011;33990;44.602;10.976;2022-09-20T07:32:04;7.05;;;2.67;;
48199;SDS011;33990;44.602;10.976;2022-09-20T07:34:31;5.45;;;2.38;;
48199;SDS011;33990;44.602;10.976;2022-09-20T07:36:59;3.95;;;2.20;;
48199;SDS011;33990;44.602;10.976;2022-09-20T07:39:26;6.45;;;2.50;;
48199;SDS011;33990;44.602;10.976;2022-09-20T07:41:53;6.47;;;2.25;;
48199;SDS011;33990;44.602;10.976;2022-09-20T07:44:21;5.40;;;2.55;;
48199;SDS011;33990;44.602;10.976;2022-09-20T07:46:52;7.97;;;2.20;;
48199;SDS011;33990;44.602;10.976;2022-09-20T07:49:22;5.90;;;2.05;;
48199;SDS011;33990;44.602;10.976;2022-09-20T07:51:50;6.97;;;2.30;;
48199;SDS011;33990;44.602;10.976;2022-09-20T07:54:19;7.72;;;2.25;;
48199;SDS011;33990;44.602;10.976;2022-09-20T07:56:47;6.57;;;2.30;;
48199;SDS011;33990;44.602;10.976;2022-09-20T07:59:14;6.10;;;2.03;;
48199;SDS011;33990;44.602;10.976;2022-09-20T08:01:42;6.85;;;2.10;;
48199;SDS011;33990;44.602;10.976;2022-09-20T08:04:09;5.68;;;2.10;;
48199;SDS011;33990;44.602;10.976;2022-09-20T08:06:38;6.53;;;2.33;;
48199;SDS011;33990;44.602;10.976;2022-09-20T08:09:07;7.35;;;2.10;;
48199;SDS011;33990;44.602;10.976;2022-09-20T08:11:38;5.75;;;2.15;;
48199;SDS011;33990;44.602;10.976;2022-09-20T08:14:07;5.53;;;1.88;;
48199;SDS011;33990;44.602;10.976;2022-09-20T08:16:40;4.35;;;2.00;;
48199;SDS011;33990;44.602;10.976;2022-09-20T08:19:20;6.25;;;2.42;;
48199;SDS011;33990;44.602;10.976;2022-09-20T08:21:49;4.18;;;2.50;;
48199;SDS011;33990;44.602;10.976;2022-09-20T08:24:19;7.47;;;2.67;;
48199;SDS011;33990;44.602;10.976;2022-09-20T08:26:47;6.53;;;2.50;;
48199;SDS011;33990;44.602;10.976;2022-09-20T08:29:14;7.25;;;3.47;;
48199;SDS011;33990;44.602;10.976;2022-09-20T08:31:42;7.15;;;2.63;;
48199;SDS011;33990;44.602;10.976;2022-09-20T08:34:10;11.25;;;2.80;;
48199;SDS011;33990;44.602;10.976;2022-09-20T08:36:41;7.20;;;2.53;;
48199;SDS011;33990;44.602;10.976;2022-09-20T08:39:13;8.60;;;3.15;;
48199;SDS011;33990;44.602;10.976;2022-09-20T08:42:09;4.35;;;2.40;;
48199;SDS011;33990;44.602;10.976;2022-09-20T08:44:55;6.00;;;2.35;;
48199;SDS011;33990;44.602;10.976;2022-09-20T08:47:30;5.47;;;2.22;;
48199;SDS011;33990;44.602;10.976;2022-09-20T08:50:02;6.30;;;2.42;;
48199;SDS011;33990;44.602;10.976;2022-09-20T08:52:36;6.35;;;2.30;;
48199;SDS011;33990;44.602;10.976;2022-09-20T08:55:17;5.50;;;2.45;;
48199;SDS011;33990;44.602;10.976;2022-09-20T08:57:51;5.57;;;2.20;;
48199;SDS011;33990;44.602;10.976;2022-09-20T09:00:25;3.72;;;1.88;;
48199;SDS011;33990;44.602;10.976;2022-09-20T09:02:57;3.72;;;1.83;;
48199;SDS011;33990;44.602;10.976;2022-09-20T09:05:31;3.97;;;2.05;;
48199;SDS011;33990;44.602;10.976;2022-09-20T09:08:00;3.58;;;2.08;;
48199;SDS011;33990;44.602;10.976;2022-09-20T09:10:51;4.07;;;2.17;;
48199;SDS011;33990;44.602;10.976;2022-09-20T09:13:22;6.07;;;2.22;;
48199;SDS011;33990;44.602;10.976;2022-09-20T09:16:13;5.03;;;2.38;;
48199;SDS011;33990;44.602;10.976;2022-09-20T09:18:49;6.05;;;2.17;;
48199;SDS011;33990;44.602;10.976;2022-09-20T09:26:27;6.95;;;2.25;;
48199;SDS011;33990;44.602;10.976;2022-09-20T09:29:22;4.35;;;2.00;;
48199;SDS011;33990;44.602;10.976;2022-09-20T09:31:51;6.05;;;2.65;;
48199;SDS011;33990;44.602;10.976;2022-09-20T09:34:30;4.93;;;2.38;;
48199;SDS011;33990;44.602;10.976;2022-09-20T09:37:04;5.93;;;2.45;;
48199;SDS011;33990;44.602;10.976;2022-09-20T09:39:35;3.22;;;2.05;;
48199;SDS011;33990;44.602;10.976;2022-09-20T09:42:20;3.50;;;2.00;;
48199;SDS011;33990;44.602;10.976;2022-09-20T09:44:49;4.88;;;2.45;;
48199;SDS011;33990;44.602;10.976;2022-09-20T09:47:35;4.95;;;2.15;;
48199;SDS011;33990;44.602;10.976;2022-09-20T09:50:03;3.70;;;2.28;;
48199;SDS011;33990;44.602;10.976;2022-09-20T09:52:35;6.15;;;2.80;;
48199;SDS011;33990;44.602;10.976;2022-09-20T09:55:03;3.40;;;2.05;;
48199;SDS011;33990;44.602;10.976;2022-09-20T10:00:12;4.85;;;2.40;;
48199;SDS011;33990;44.602;10.976;2022-09-20T10:14:03;5.68;;;2.17;;
48199;SDS011;33990;44.602;10.976;2022-09-20T10:36:53;3.85;;;2.00;;
48199;SDS011;33990;44.602;10.976;2022-09-20T10:39:45;3.95;;;2.10;;
48199;SDS011;33990;44.602;10.976;2022-09-20T10:56:11;4.72;;;2.30;;
48199;SDS011;33990;44.602;10.976;2022-09-20T10:59:17;7.20;;;2.20;;
48199;SDS011;33990;44.602;10.976;2022-09-20T11:02:08;2.78;;;2.03;;
48199;SDS011;33990;44.602;10.976;2022-09-20T11:16:02;12.32;;;2.80;;
48199;SDS011;33990;44.602;10.976;2022-09-20T11:21:22;3.63;;;2.05;;
48199;SDS011;33990;44.602;10.976;2022-09-20T11:26:38;5.32;;;2.55;;
48199;SDS011;33990;44.602;10.976;2022-09-20T11:29:21;3.63;;;2.75;;
48199;SDS011;33990;44.602;10.976;2022-09-20T11:31:55;3.42;;;2.20;;
48199;SDS011;33990;44.602;10.976;2022-09-20T11:34:52;4.25;;;2.15;;
48199;SDS011;33990;44.602;10.976;2022-09-20T11:37:24;4.13;;;2.30;;
48199;SDS011;33990;44.602;10.976;2022-09-20T11:39:57;5.60;;;2.38;;
48199;SDS011;33990;44.602;10.976;2022-09-20T11:42:35;8.15;;;4.32;;
48199;SDS011;33990;44.602;10.976;2022-09-20T11:45:10;7.50;;;3.38;;
48199;SDS011;33990;44.602;10.976;2022-09-20T11:47:42;7.35;;;3.38;;
48199;SDS011;33990;44.602;10.976;2022-09-20T11:53:11;4.80;;;3.00;;
48199;SDS011;33990;44.602;10.976;2022-09-20T11:55:51;4.57;;;2.63;;
48199;SDS011;33990;44.602;10.976;2022-09-20T11:58:20;8.65;;;3.10;;
48199;SDS011;33990;44.602;10.976;2022-09-20T12:00:49;3.88;;;2.50;;
48199;SDS011;33990;44.602;10.976;2022-09-20T12:03:26;4.73;;;2.60;;
48199;SDS011;33990;44.602;10.976;2022-09-20T12:06:31;7.38;;;3.17;;
48199;SDS011;33990;44.602;10.976;2022-09-20T12:09:02;5.53;;;2.63;;
48199;SDS011;33990;44.602;10.976;2022-09-20T12:11:35;3.45;;;2.10;;
48199;SDS011;33990;44.602;10.976;2022-09-20T12:14:06;6.60;;;2.10;;
48199;SDS011;33990;44.602;10.976;2022-09-20T12:16:45;7.50;;;2.88;;
48199;SDS011;33990;44.602;10.976;2022-09-20T12:24:30;5.60;;;2.47;;
48199;SDS011;33990;44.602;10.976;2022-09-20T12:32:49;5.13;;;2.08;;
48199;SDS011;33990;44.602;10.976;2022-09-20T12:40:57;5.07;;;2.10;;
48199;SDS011;33990;44.602;10.976;2022-09-20T12:43:38;5.38;;;2.40;;
48199;SDS011;33990;44.602;10.976;2022-09-20T12:46:23;2.88;;;1.70;;
48199;SDS011;33990;44.602;10.976;2022-09-20T12:52:01;3.85;;;2.40;;
48199;SDS011;33990;44.602;10.976;2022-09-20T12:54:49;5.28;;;2.08;;
48199;SDS011;33990;44.602;10.976;2022-09-20T12:57:26;3.33;;;2.55;;
48199;SDS011;33990;44.602;10.976;2022-09-20T12:59:58;3.40;;;2.20;;
48199;SDS011;33990;44.602;10.976;2022-09-20T13:05:29;4.65;;;2.00;;
48199;SDS011;33990;44.602;10.976;2022-09-20T13:08:03;4.68;;;1.75;;
48199;SDS011;33990;44.602;10.976;2022-09-20T13:10:47;5.05;;;2.25;;
48199;SDS011;33990;44.602;10.976;2022-09-20T13:16:19;3.55;;;2.20;;
48199;SDS011;33990;44.602;10.976;2022-09-20T13:19:05;4.70;;;2.05;;
48199;SDS011;33990;44.602;10.976;2022-09-20T13:21:43;4.57;;;2.22;;
48199;SDS011;33990;44.602;10.976;2022-09-20T13:24:40;3.80;;;2.28;;
48199;SDS011;33990;44.602;10.976;2022-09-20T13:27:12;4.82;;;2.05;;
48199;SDS011;33990;44.602;10.976;2022-09-20T13:29:45;5.35;;;2.20;;
48199;SDS011;33990;44.602;10.976;2022-09-20T13:32:25;4.57;;;2.47;;
48199;SDS011;33990;44.602;10.976;2022-09-20T13:42:46;5.38;;;2.38;;
48199;SDS011;33990;44.602;10.976;2022-09-20T13:45:16;3.65;;;2.08;;
48199;SDS011;33990;44.602;10.976;2022-09-20T13:47:51;2.85;;;1.83;;
48199;SDS011;33990;44.602;10.976;2022-09-20T13:50:28;4.70;;;2.03;;
48199;SDS011;33990;44.602;10.976;2022-09-20T13:53:00;4.85;;;3.13;;
48199;SDS011;33990;44.602;10.976;2022-09-20T13:55:59;4.03;;;1.75;;
48199;SDS011;33990;44.602;10.976;2022-09-20T13:58:28;3.60;;;2.03;;
48199;SDS011;33990;44.602;10.976;2022-09-20T14:00:59;4.10;;;1.73;;
48199;SDS011;33990;44.602;10.976;2022-09-20T14:03:29;7.53;;;2.67;;
48199;SDS011;33990;44.602;10.976;2022-09-20T14:06:00;2.58;;;1.90;;
48199;SDS011;33990;44.602;10.976;2022-09-20T14:08:36;2.85;;;1.70;;
48199;SDS011;33990;44.602;10.976;2022-09-20T14:11:13;3.38;;;1.98;;
48199;SDS011;33990;44.602;10.976;2022-09-20T14:13:44;3.03;;;1.83;;
48199;SDS011;33990;44.602;10.976;2022-09-20T14:16:15;2.22;;;1.70;;
48199;SDS011;33990;44.602;10.976;2022-09-20T14:18:44;3.38;;;1.58;;
48199;SDS011;33990;44.602;10.976;2022-09-20T14:21:16;2.88;;;1.70;;
48199;SDS011;33990;44.602;10.976;2022-09-20T14:26:33;4.03;;;2.10;;
48199;SDS011;33990;44.602;10.976;2022-09-20T14:32:05;2.72;;;1.48;;
48199;SDS011;33990;44.602;10.976;2022-09-20T14:34:37;3.33;;;1.90;;
48199;SDS011;33990;44.602;10.976;2022-09-20T14:37:13;4.00;;;1.70;;
48199;SDS011;33990;44.602;10.976;2022-09-20T14:40:05;3.35;;;1.70;;
48199;SDS011;33990;44.602;10.976;2022-09-20T14:42:45;3.80;;;1.92;;
48199;SDS011;33990;44.602;10.976;2022-09-20T14:45:32;4.57;;;1.58;;
48199;SDS011;33990;44.602;10.976;2022-09-20T14:48:26;3.20;;;1.85;;
48199;SDS011;33990;44.602;10.976;2022-09-20T14:53:45;3.50;;;1.45;;
48199;SDS011;33990;44.602;10.976;2022-09-20T14:56:16;3.65;;;1.67;;
48199;SDS011;33990;44.602;10.976;2022-09-20T14:59:17;4.15;;;1.70;;
48199;SDS011;33990;44.602;10.976;2022-09-20T15:01:52;4.35;;;1.75;;
48199;SDS011;33990;44.602;10.976;2022-09-20T15:04:23;2.38;;;1.60;;
48199;SDS011;33990;44.602;10.976;2022-09-20T15:06:54;2.60;;;1.73;;
48199;SDS011;33990;44.602;10.976;2022-09-20T15:09:22;3.88;;;1.60;;
48199;SDS011;33990;44.602;10.976;2022-09-20T15:12:03;5.28;;;2.22;;
48199;SDS011;33990;44.602;10.976;2022-09-20T15:14:38;5.90;;;2.08;;
48199;SDS011;33990;44.602;10.976;2022-09-20T15:17:17;2.83;;;1.63;;
48199;SDS011;33990;44.602;10.976;2022-09-20T15:19:46;2.50;;;1.52;;
48199;SDS011;33990;44.602;10.976;2022-09-20T15:22:15;2.38;;;1.70;;
48199;SDS011;33990;44.602;10.976;2022-09-20T15:24:42;3.42;;;1.58;;
48199;SDS011;33990;44.602;10.976;2022-09-20T15:27:10;4.38;;;1.60;;
48199;SDS011;33990;44.602;10.976;2022-09-20T15:29:38;4.75;;;1.60;;
48199;SDS011;33990;44.602;10.976;2022-09-20T15:32:05;2.88;;;1.70;;
48199;SDS011;33990;44.602;10.976;2022-09-20T15:34:36;2.75;;;1.75;;
48199;SDS011;33990;44.602;10.976;2022-09-20T15:37:04;2.42;;;1.48;;
48199;SDS011;33990;44.602;10.976;2022-09-20T15:39:31;2.75;;;2.00;;
48199;SDS011;33990;44.602;10.976;2022-09-20T15:41:58;3.08;;;1.58;;
48199;SDS011;33990;44.602;10.976;2022-09-20T15:44:26;3.90;;;1.65;;
48199;SDS011;33990;44.602;10.976;2022-09-20T15:46:53;3.17;;;1.70;;
48199;SDS011;33990;44.602;10.976;2022-09-20T15:49:20;3.15;;;1.85;;
48199;SDS011;33990;44.602;10.976;2022-09-20T15:51:48;2.00;;;1.50;;
48199;SDS011;33990;44.602;10.976;2022-09-20T15:54:16;2.72;;;1.65;;
48199;SDS011;33990;44.602;10.976;2022-09-20T15:56:43;2.70;;;1.40;;
48199;SDS011;33990;44.602;10.976;2022-09-20T15:59:11;4.55;;;1.80;;
48199;SDS011;33990;44.602;10.976;2022-09-20T16:01:40;2.70;;;1.52;;
48199;SDS011;33990;44.602;10.976;2022-09-20T16:04:12;2.15;;;1.33;;
48199;SDS011;33990;44.602;10.976;2022-09-20T16:09:09;2.88;;;1.60;;
48199;SDS011;33990;44.602;10.976;2022-09-20T16:11:38;3.42;;;1.70;;
48199;SDS011;33990;44.602;10.976;2022-09-20T16:14:05;2.55;;;1.63;;
48199;SDS011;33990;44.602;10.976;2022-09-20T16:16:33;3.22;;;1.63;;
48199;SDS011;33990;44.602;10.976;2022-09-20T16:19:08;4.13;;;1.70;;
48199;SDS011;33990;44.602;10.976;2022-09-20T16:24:25;3.53;;;1.73;;
48199;SDS011;33990;44.602;10.976;2022-09-20T16:26:54;2.63;;;1.67;;
48199;SDS011;33990;44.602;10.976;2022-09-20T16:29:22;4.30;;;1.50;;
48199;SDS011;33990;44.602;10.976;2022-09-20T16:31:52;2.55;;;1.40;;
48199;SDS011;33990;44.602;10.976;2022-09-20T16:34:24;3.60;;;1.50;;
48199;SDS011;33990;44.602;10.976;2022-09-20T16:37:04;3.60;;;1.63;;
48199;SDS011;33990;44.602;10.976;2022-09-20T16:39:36;3.63;;;1.60;;
48199;SDS011;33990;44.602;10.976;2022-09-20T16:42:04;3.20;;;1.50;;
48199;SDS011;33990;44.602;10.976;2022-09-20T16:44:37;2.80;;;1.40;;
48199;SDS011;33990;44.602;10.976;2022-09-20T16:47:06;5.00;;;1.77;;
48199;SDS011;33990;44.602;10.976;2022-09-20T16:49:36;2.30;;;1.52;;
48199;SDS011;33990;44.602;10.976;2022-09-20T16:52:04;2.70;;;1.30;;
48199;SDS011;33990;44.602;10.976;2022-09-20T16:54:33;2.03;;;1.50;;
48199;SDS011;33990;44.602;10.976;2022-09-20T16:57:01;2.05;;;1.40;;
48199;SDS011;33990;44.602;10.976;2022-09-20T16:59:29;4.53;;;1.50;;
48199;SDS011;33990;44.602;10.976;2022-09-20T17:01:56;2.08;;;1.50;;
48199;SDS011;33990;44.602;10.976;2022-09-20T17:04:24;2.00;;;1.40;;
48199;SDS011;33990;44.602;10.976;2022-09-20T17:06:51;2.72;;;1.40;;
48199;SDS011;33990;44.602;10.976;2022-09-20T17:09:19;1.80;;;1.25;;
48199;SDS011;33990;44.602;10.976;2022-09-20T17:11:47;1.75;;;1.40;;
48199;SDS011;33990;44.602;10.976;2022-09-20T17:14:17;3.05;;;1.77;;
48199;SDS011;33990;44.602;10.976;2022-09-20T17:16:46;2.22;;;1.30;;
48199;SDS011;33990;44.602;10.976;2022-09-20T17:19:15;2.38;;;1.60;;
48199;SDS011;33990;44.602;10.976;2022-09-20T17:21:45;5.35;;;1.90;;
48199;SDS011;33990;44.602;10.976;2022-09-20T17:24:20;3.83;;;1.57;;
48199;SDS011;33990;44.602;10.976;2022-09-20T17:26:48;4.45;;;1.70;;
48199;SDS011;33990;44.602;10.976;2022-09-20T17:29:17;2.30;;;1.58;;
48199;SDS011;33990;44.602;10.976;2022-09-20T17:31:47;3.70;;;1.50;;
48199;SDS011;33990;44.602;10.976;2022-09-20T17:34:21;3.45;;;1.80;;
48199;SDS011;33990;44.602;10.976;2022-09-20T17:36:50;2.30;;;1.42;;
48199;SDS011;33990;44.602;10.976;2022-09-20T17:39:20;2.25;;;1.52;;
48199;SDS011;33990;44.602;10.976;2022-09-20T17:41:47;4.07;;;1.70;;
48199;SDS011;33990;44.602;10.976;2022-09-20T17:44:15;3.22;;;1.85;;
48199;SDS011;33990;44.602;10.976;2022-09-20T17:46:44;2.08;;;1.50;;
48199;SDS011;33990;44.602;10.976;2022-09-20T17:49:14;4.30;;;1.60;;
48199;SDS011;33990;44.602;10.976;2022-09-20T17:54:15;3.00;;;1.40;;
48199;SDS011;33990;44.602;10.976;2022-09-20T17:56:47;2.58;;;1.50;;
48199;SDS011;33990;44.602;10.976;2022-09-20T17:59:17;4.00;;;1.65;;
48199;SDS011;33990;44.602;10.976;2022-09-20T18:01:46;4.93;;;1.70;;
48199;SDS011;33990;44.602;10.976;2022-09-20T18:04:16;2.30;;;1.42;;
48199;SDS011;33990;44.602;10.976;2022-09-20T18:06:47;2.70;;;1.60;;
48199;SDS011;33990;44.602;10.976;2022-09-20T18:09:19;2.60;;;1.83;;
48199;SDS011;33990;44.602;10.976;2022-09-20T18:11:50;2.60;;;1.50;;
48199;SDS011;33990;44.602;10.976;2022-09-20T18:14:19;7.72;;;1.80;;
48199;SDS011;33990;44.602;10.976;2022-09-20T18:16:52;2.20;;;1.65;;
48199;SDS011;33990;44.602;10.976;2022-09-20T18:21:49;4.47;;;1.73;;
48199;SDS011;33990;44.602;10.976;2022-09-20T18:24:16;3.47;;;2.00;;
48199;SDS011;33990;44.602;10.976;2022-09-20T18:26:43;2.38;;;1.65;;
48199;SDS011;33990;44.602;10.976;2022-09-20T18:29:11;3.70;;;1.98;;
48199;SDS011;33990;44.602;10.976;2022-09-20T18:31:45;2.33;;;1.55;;
48199;SDS011;33990;44.602;10.976;2022-09-20T18:34:18;3.83;;;1.73;;
48199;SDS011;33990;44.602;10.976;2022-09-20T18:36:50;3.45;;;1.50;;
48199;SDS011;33990;44.602;10.976;2022-09-20T18:39:23;4.35;;;1.65;;
48199;SDS011;33990;44.602;10.976;2022-09-20T18:42:01;2.95;;;1.65;;
48199;SDS011;33990;44.602;10.976;2022-09-20T18:44:29;3.03;;;1.52;;
48199;SDS011;33990;44.602;10.976;2022-09-20T18:47:00;4.13;;;1.80;;
48199;SDS011;33990;44.602;10.976;2022-09-20T18:49:28;3.72;;;1.63;;
48199;SDS011;33990;44.602;10.976;2022-09-20T18:51:56;2.95;;;1.55;;
48199;SDS011;33990;44.602;10.976;2022-09-20T18:54:24;6.60;;;1.52;;
48199;SDS011;33990;44.602;10.976;2022-09-20T18:56:51;5.03;;;1.95;;
48199;SDS011;33990;44.602;10.976;2022-09-20T18:59:23;2.97;;;1.70;;
48199;SDS011;33990;44.602;10.976;2022-09-20T19:07:46;3.60;;;1.83;;
48199;SDS011;33990;44.602;10.976;2022-09-20T19:13:25;7.57;;;2.30;;
48199;SDS011;33990;44.602;10.976;2022-09-20T19:19:20;5.38;;;1.60;;
48199;SDS011;33990;44.602;10.976;2022-09-20T19:22:27;6.57;;;2.17;;
48199;SDS011;33990;44.602;10.976;2022-09-20T19:25:18;3.10;;;1.80;;
48199;SDS011;33990;44.602;10.976;2022-09-20T19:27:51;3.55;;;1.70;;
48199;SDS011;33990;44.602;10.976;2022-09-20T19:30:25;2.97;;;1.60;;
48199;SDS011;33990;44.602;10.976;2022-09-20T19:33:20;4.10;;;2.20;;
48199;SDS011;33990;44.602;10.976;2022-09-20T19:36:00;2.85;;;1.52;;
48199;SDS011;33990;44.602;10.976;2022-09-20T19:38:51;3.30;;;1.55;;
48199;SDS011;33990;44.602;10.976;2022-09-20T19:41:55;2.60;;;1.60;;
48199;SDS011;33990;44.602;10.976;2022-09-20T19:52:16;4.40;;;1.85;;
48199;SDS011;33990;44.602;10.976;2022-09-20T19:54:44;3.75;;;1.85;;
48199;SDS011;33990;44.602;10.976;2022-09-20T19:57:16;3.10;;;1.58;;
48199;SDS011;33990;44.602;10.976;2022-09-20T19:59:49;2.00;;;1.30;;
48199;SDS011;33990;44.602;10.976;2022-09-20T20:02:17;2.40;;;1.67;;
48199;SDS011;33990;44.602;10.976;2022-09-20T20:04:44;2.92;;;1.50;;
48199;SDS011;33990;44.602;10.976;2022-09-20T20:10:21;2.88;;;1.70;;
48199;SDS011;33990;44.602;10.976;2022-09-20T20:16:48;3.28;;;1.38;;
48199;SDS011;33990;44.602;10.976;2022-09-20T20:25:06;3.67;;;1.85;;
48199;SDS011;33990;44.602;10.976;2022-09-20T20:27:52;3.85;;;1.50;;
48199;SDS011;33990;44.602;10.976;2022-09-20T20:30:19;2.03;;;1.40;;
48199;SDS011;33990;44.602;10.976;2022-09-20T20:32:46;3.58;;;1.42;;
48199;SDS011;33990;44.602;10.976;2022-09-20T20:35:20;3.47;;;2.00;;
48199;SDS011;33990;44.602;10.976;2022-09-20T20:37:48;2.33;;;1.60;;
48199;SDS011;33990;44.602;10.976;2022-09-20T20:40:16;3.55;;;1.80;;
48199;SDS011;33990;44.602;10.976;2022-09-20T20:42:43;2.28;;;1.50;;
48199;SDS011;33990;44.602;10.976;2022-09-20T20:45:13;3.17;;;1.55;;
48199;SDS011;33990;44.602;10.976;2022-09-20T20:47:40;2.35;;;1.60;;
48199;SDS011;33990;44.602;10.976;2022-09-20T20:50:08;2.45;;;1.55;;
48199;SDS011;33990;44.602;10.976;2022-09-20T20:52:38;2.25;;;1.75;;
48199;SDS011;33990;44.602;10.976;2022-09-20T20:55:06;2.50;;;1.40;;
48199;SDS011;33990;44.602;10.976;2022-09-20T20:57:35;1.88;;;1.30;;
48199;SDS011;33990;44.602;10.976;2022-09-20T21:00:06;2.30;;;1.60;;
48199;SDS011;33990;44.602;10.976;2022-09-20T21:02:34;3.83;;;1.52;;
48199;SDS011;33990;44.602;10.976;2022-09-20T21:05:01;5.88;;;1.50;;